createdAt,value
2018-11-28T00:00:37.107Z,0.00
2018-11-28T00:01:37.076Z,0.00
2018-11-28T00:02:37.096Z,0.00
2018-11-28T00:03:37.098Z,0.00
2018-11-28T00:04:37.094Z,0.00
2018-11-28T00:05:37.134Z,0.00
2018-11-28T00:06:37.136Z,0.00
2018-11-28T00:07:37.095Z,0.00
2018-11-28T00:08:37.120Z,0.00
2018-11-28T00:09:37.112Z,0.00
2018-11-28T00:10:37.104Z,0.00
2018-11-28T00:11:37.126Z,0.00
2018-11-28T00:12:37.123Z,0.00
2018-11-28T00:13:37.162Z,0.00
2018-11-28T00:14:37.172Z,0.00
2018-11-28T00:15:37.132Z,0.00
2018-11-28T00:16:37.139Z,0.00
2018-11-28T00:17:37.125Z,0.00
2018-11-28T00:18:37.154Z,0.00
2018-11-28T00:19:37.275Z,0.00
2018-11-28T00:20:37.181Z,0.00
2018-11-28T00:21:37.179Z,0.00
2018-11-28T00:22:37.180Z,0.00
2018-11-28T00:23:37.165Z,0.00
2018-11-28T00:24:37.168Z,0.00
2018-11-28T00:25:37.197Z,0.00
2018-11-28T00:26:37.160Z,0.00
2018-11-28T00:27:37.218Z,0.00
2018-11-28T00:28:37.170Z,0.00
2018-11-28T00:29:37.195Z,0.00
2018-11-28T00:30:37.236Z,0.00
2018-11-28T00:31:37.185Z,0.00
2018-11-28T00:32:37.179Z,0.00
2018-11-28T00:33:37.251Z,0.00
2018-11-28T00:34:37.220Z,0.00
2018-11-28T00:35:37.259Z,0.00
2018-11-28T00:36:37.264Z,0.00
2018-11-28T00:37:37.236Z,0.00
2018-11-28T00:38:37.200Z,0.00
2018-11-28T00:39:37.245Z,0.00
2018-11-28T00:40:37.207Z,0.00
2018-11-28T00:41:37.305Z,0.00
2018-11-28T00:42:37.221Z,0.00
2018-11-28T00:43:37.230Z,0.00
2018-11-28T00:44:37.458Z,0.00
2018-11-28T00:45:37.247Z,0.00
2018-11-28T00:46:37.302Z,0.00
2018-11-28T00:47:37.231Z,0.00
2018-11-28T00:48:37.233Z,0.00
2018-11-28T00:49:37.264Z,0.00
2018-11-28T00:50:37.240Z,0.00
2018-11-28T00:51:37.300Z,0.00
2018-11-28T00:52:37.266Z,0.00
2018-11-28T00:53:37.275Z,0.00
2018-11-28T00:54:37.270Z,0.00
2018-11-28T00:55:37.306Z,0.00
2018-11-28T00:56:37.412Z,0.00
2018-11-28T00:57:37.265Z,0.00
2018-11-28T00:58:37.310Z,0.00
2018-11-28T00:59:37.284Z,0.00
2018-11-28T01:00:37.291Z,0.00
2018-11-28T01:01:37.286Z,0.00
2018-11-28T01:02:37.763Z,0.00
2018-11-28T01:03:37.373Z,0.00
2018-11-28T01:04:37.320Z,0.00
2018-11-28T01:05:37.333Z,0.00
2018-11-28T01:06:37.302Z,0.00
2018-11-28T01:07:37.360Z,0.00
2018-11-28T01:08:37.331Z,0.00
2018-11-28T01:09:37.365Z,0.00
2018-11-28T01:10:37.320Z,0.00
2018-11-28T01:11:37.332Z,0.00
2018-11-28T01:12:37.317Z,0.00
2018-11-28T01:13:37.341Z,0.00
2018-11-28T01:14:37.346Z,0.00
2018-11-28T01:15:37.345Z,0.00
2018-11-28T01:16:37.494Z,0.00
2018-11-28T01:17:37.367Z,0.00
2018-11-28T01:18:37.465Z,0.00
2018-11-28T01:19:37.356Z,0.00
2018-11-28T01:20:37.432Z,0.00
2018-11-28T01:21:37.354Z,0.00
2018-11-28T01:22:37.374Z,0.00
2018-11-28T01:23:37.394Z,0.00
2018-11-28T01:24:37.401Z,0.00
2018-11-28T01:25:37.375Z,0.00
2018-11-28T01:26:37.387Z,0.00
2018-11-28T01:27:37.425Z,0.00
2018-11-28T01:28:37.523Z,0.00
2018-11-28T01:29:37.401Z,0.00
2018-11-28T01:30:37.405Z,0.00
2018-11-28T01:31:37.384Z,0.00
2018-11-28T01:32:37.416Z,0.00
2018-11-28T01:33:37.403Z,0.00
2018-11-28T01:34:37.491Z,0.00
2018-11-28T01:35:37.400Z,0.00
2018-11-28T01:36:37.425Z,0.00
2018-11-28T01:37:37.432Z,0.00
2018-11-28T01:38:37.430Z,0.00
2018-11-28T01:39:37.444Z,0.00
2018-11-28T01:40:37.447Z,0.00
2018-11-28T01:41:37.426Z,0.00
2018-11-28T01:42:37.432Z,0.00
2018-11-28T01:43:37.423Z,0.00
2018-11-28T01:44:37.476Z,0.00
2018-11-28T01:45:37.446Z,0.00
2018-11-28T01:46:37.481Z,0.00
2018-11-28T01:47:37.480Z,0.00
2018-11-28T01:48:37.497Z,0.00
2018-11-28T01:49:37.465Z,0.00
2018-11-28T01:50:37.463Z,0.00
2018-11-28T01:51:37.530Z,0.00
2018-11-28T01:52:37.463Z,0.00
2018-11-28T01:53:37.490Z,0.00
2018-11-28T01:54:37.474Z,0.00
2018-11-28T01:55:37.517Z,0.00
2018-11-28T01:56:37.523Z,0.00
2018-11-28T01:57:37.517Z,0.00
2018-11-28T01:58:37.489Z,0.00
2018-11-28T01:59:37.521Z,0.00
2018-11-28T02:00:37.481Z,0.00
2018-11-28T02:01:37.490Z,0.00
2018-11-28T02:02:37.533Z,0.00
2018-11-28T02:03:37.554Z,0.00
2018-11-28T02:04:37.515Z,0.00
2018-11-28T02:05:37.562Z,0.00
2018-11-28T02:06:37.514Z,0.00
2018-11-28T02:07:37.505Z,0.00
2018-11-28T02:08:37.539Z,0.00
2018-11-28T02:09:37.546Z,0.00
2018-11-28T02:10:37.535Z,0.00
2018-11-28T02:11:37.537Z,0.00
2018-11-28T02:12:37.563Z,0.00
2018-11-28T02:13:37.573Z,0.00
2018-11-28T02:14:37.533Z,0.00
2018-11-28T02:15:37.546Z,0.00
2018-11-28T02:16:37.543Z,0.00
2018-11-28T02:17:37.555Z,0.00
2018-11-28T02:18:37.566Z,0.00
2018-11-28T02:19:37.589Z,0.00
2018-11-28T02:20:37.555Z,0.00
2018-11-28T02:21:37.566Z,0.00
2018-11-28T02:22:37.580Z,0.00
2018-11-28T02:23:37.579Z,0.00
2018-11-28T02:24:37.607Z,0.00
2018-11-28T02:25:37.575Z,0.00
2018-11-28T02:26:37.582Z,0.00
2018-11-28T02:27:37.573Z,0.00
2018-11-28T02:28:37.581Z,0.00
2018-11-28T02:29:37.635Z,0.00
2018-11-28T02:30:37.620Z,0.00
2018-11-28T02:31:37.594Z,0.00
2018-11-28T02:32:37.604Z,0.00
2018-11-28T02:33:37.601Z,0.00
2018-11-28T02:34:37.609Z,0.00
2018-11-28T02:35:37.650Z,0.00
2018-11-28T02:36:37.593Z,0.00
2018-11-28T02:37:37.611Z,0.00
2018-11-28T02:38:37.636Z,0.00
2018-11-28T02:39:37.619Z,0.00
2018-11-28T02:40:37.645Z,0.00
2018-11-28T02:41:37.625Z,0.00
2018-11-28T02:42:37.624Z,0.00
2018-11-28T02:43:37.621Z,0.00
2018-11-28T02:44:37.650Z,0.00
2018-11-28T02:45:37.743Z,0.00
2018-11-28T02:46:37.648Z,0.00
2018-11-28T02:47:37.645Z,0.00
2018-11-28T02:48:37.654Z,0.00
2018-11-28T02:49:37.689Z,0.00
2018-11-28T02:50:37.666Z,0.00
2018-11-28T02:51:38.002Z,0.00
2018-11-28T02:52:37.658Z,0.00
2018-11-28T02:53:37.669Z,0.00
2018-11-28T02:54:37.665Z,0.00
2018-11-28T02:55:37.663Z,0.00
2018-11-28T02:56:37.670Z,0.00
2018-11-28T02:57:37.685Z,0.00
2018-11-28T02:58:37.689Z,0.00
2018-11-28T02:59:37.706Z,0.00
2018-11-28T03:00:37.697Z,0.00
2018-11-28T03:01:37.689Z,0.00
2018-11-28T03:02:37.708Z,0.00
2018-11-28T03:03:37.767Z,0.00
2018-11-28T03:04:37.695Z,0.00
2018-11-28T03:05:37.782Z,0.00
2018-11-28T03:06:37.710Z,0.00
2018-11-28T03:07:37.758Z,0.00
2018-11-28T03:08:37.713Z,0.00
2018-11-28T03:09:37.737Z,0.00
2018-11-28T03:10:37.751Z,0.00
2018-11-28T03:11:37.717Z,0.00
2018-11-28T03:12:37.727Z,0.00
2018-11-28T03:13:37.719Z,0.00
2018-11-28T03:14:37.742Z,0.00
2018-11-28T03:15:37.753Z,0.00
2018-11-28T03:16:37.737Z,0.00
2018-11-28T03:17:37.725Z,0.00
2018-11-28T03:18:37.730Z,0.00
2018-11-28T03:19:37.738Z,0.00
2018-11-28T03:20:37.788Z,0.00
2018-11-28T03:21:37.735Z,0.00
2018-11-28T03:22:37.751Z,0.00
2018-11-28T03:23:37.747Z,0.00
2018-11-28T03:24:37.751Z,0.00
2018-11-28T03:25:37.804Z,0.00
2018-11-28T03:26:37.776Z,0.00
2018-11-28T03:27:37.778Z,0.00
2018-11-28T03:28:37.756Z,0.00
2018-11-28T03:29:37.759Z,0.00
2018-11-28T03:30:37.773Z,0.00
2018-11-28T03:31:37.824Z,0.00
2018-11-28T03:32:37.790Z,0.00
2018-11-28T03:33:37.783Z,0.00
2018-11-28T03:34:37.785Z,0.00
2018-11-28T03:35:37.795Z,0.00
2018-11-28T03:36:37.800Z,0.00
2018-11-28T03:37:37.825Z,0.00
2018-11-28T03:38:37.911Z,0.00
2018-11-28T03:39:37.787Z,0.00
2018-11-28T03:40:37.873Z,0.00
2018-11-28T03:41:37.798Z,0.00
2018-11-28T03:42:37.791Z,0.00
2018-11-28T03:43:38.262Z,0.00
2018-11-28T03:44:37.799Z,0.00
2018-11-28T03:45:37.825Z,0.00
2018-11-28T03:46:37.825Z,0.00
2018-11-28T03:47:37.852Z,0.00
2018-11-28T03:48:37.836Z,0.00
2018-11-28T03:49:37.851Z,0.00
2018-11-28T03:50:37.820Z,0.00
2018-11-28T03:51:37.821Z,0.00
2018-11-28T03:52:37.834Z,0.00
2018-11-28T03:53:37.827Z,0.00
2018-11-28T03:54:37.874Z,0.00
2018-11-28T03:55:37.871Z,0.00
2018-11-28T03:56:37.836Z,0.00
2018-11-28T03:57:37.846Z,0.00
2018-11-28T03:58:37.855Z,0.00
2018-11-28T03:59:37.875Z,0.00
2018-11-28T04:00:37.896Z,0.00
2018-11-28T04:01:37.870Z,0.00
2018-11-28T04:02:37.907Z,0.00
2018-11-28T04:03:37.854Z,0.00
2018-11-28T04:04:37.881Z,0.00
2018-11-28T04:05:37.861Z,0.00
2018-11-28T04:06:37.876Z,0.00
2018-11-28T04:07:37.861Z,0.00
2018-11-28T04:08:37.880Z,0.00
2018-11-28T04:09:37.889Z,0.00
2018-11-28T04:10:37.919Z,0.00
2018-11-28T04:11:37.876Z,0.00
2018-11-28T04:12:37.904Z,0.00
2018-11-28T04:13:37.870Z,0.00
2018-11-28T04:14:37.882Z,0.00
2018-11-28T04:15:37.912Z,0.00
2018-11-28T04:16:37.886Z,0.00
2018-11-28T04:17:37.906Z,0.00
2018-11-28T04:18:37.949Z,0.00
2018-11-28T04:19:37.896Z,0.00
2018-11-28T04:20:37.889Z,0.00
2018-11-28T04:21:37.919Z,0.00
2018-11-28T04:22:37.963Z,0.00
2018-11-28T04:23:37.928Z,0.00
2018-11-28T04:24:37.917Z,0.00
2018-11-28T04:25:37.911Z,0.00
2018-11-28T04:26:37.920Z,0.00
2018-11-28T04:27:37.911Z,0.00
2018-11-28T04:28:37.930Z,0.00
2018-11-28T04:29:37.992Z,0.00
2018-11-28T04:30:37.929Z,0.00
2018-11-28T04:31:37.930Z,0.00
2018-11-28T04:32:37.932Z,0.00
2018-11-28T04:33:37.979Z,0.00
2018-11-28T04:34:37.936Z,0.00
2018-11-28T04:35:37.984Z,0.00
2018-11-28T04:36:37.981Z,0.00
2018-11-28T04:37:37.942Z,0.00
2018-11-28T04:38:37.961Z,0.00
2018-11-28T04:39:37.986Z,0.00
2018-11-28T04:40:38.047Z,0.00
2018-11-28T04:41:38.009Z,0.00
2018-11-28T04:42:37.960Z,0.00
2018-11-28T04:43:37.964Z,0.00
2018-11-28T04:44:37.969Z,0.00
2018-11-28T04:45:37.954Z,0.00
2018-11-28T04:46:37.987Z,0.00
2018-11-28T04:47:37.960Z,0.00
2018-11-28T04:48:37.960Z,0.00
2018-11-28T04:49:37.962Z,0.00
2018-11-28T04:50:37.998Z,0.00
2018-11-28T04:51:38.007Z,0.00
2018-11-28T04:52:37.984Z,0.00
2018-11-28T04:53:37.985Z,0.00
2018-11-28T04:54:37.988Z,0.00
2018-11-28T04:55:38.016Z,0.00
2018-11-28T04:56:38.004Z,0.00
2018-11-28T04:57:37.993Z,0.00
2018-11-28T04:58:37.988Z,0.00
2018-11-28T04:59:37.991Z,0.00
2018-11-28T05:00:38.020Z,0.00
2018-11-28T05:01:37.995Z,0.00
2018-11-28T05:02:38.023Z,0.00
2018-11-28T05:03:38.008Z,0.00
2018-11-28T05:04:38.036Z,0.00
2018-11-28T05:05:38.029Z,0.00
2018-11-28T05:06:37.993Z,0.00
2018-11-28T05:07:38.017Z,0.00
2018-11-28T05:08:38.049Z,0.00
2018-11-28T05:09:38.049Z,0.00
2018-11-28T05:10:38.023Z,0.00
2018-11-28T05:11:38.052Z,0.00
2018-11-28T05:12:38.024Z,0.00
2018-11-28T05:13:38.037Z,0.00
2018-11-28T05:14:38.037Z,0.00
2018-11-28T05:15:38.041Z,0.00
2018-11-28T05:16:38.048Z,0.00
2018-11-28T05:17:38.067Z,0.00
2018-11-28T05:18:38.071Z,0.00
2018-11-28T05:19:38.035Z,0.00
2018-11-28T05:20:38.139Z,0.00
2018-11-28T05:21:38.060Z,0.00
2018-11-28T05:22:38.033Z,0.00
2018-11-28T05:23:38.051Z,0.00
2018-11-28T05:24:38.094Z,0.00
2018-11-28T05:25:38.064Z,0.00
2018-11-28T05:26:38.211Z,0.00
2018-11-28T05:27:38.090Z,0.00
2018-11-28T05:28:38.068Z,0.00
2018-11-28T05:29:38.042Z,0.00
2018-11-28T05:30:38.053Z,0.00
2018-11-28T05:31:38.090Z,0.00
2018-11-28T05:32:38.076Z,0.00
2018-11-28T05:33:38.083Z,0.00
2018-11-28T05:34:38.135Z,0.00
2018-11-28T05:35:38.077Z,0.00
2018-11-28T05:36:38.127Z,0.00
2018-11-28T05:37:38.091Z,0.00
2018-11-28T05:38:38.080Z,0.00
2018-11-28T05:39:38.087Z,0.00
2018-11-28T05:40:38.074Z,0.00
2018-11-28T05:41:38.082Z,0.00
2018-11-28T05:42:38.146Z,0.00
2018-11-28T05:43:38.084Z,0.00
2018-11-28T05:44:38.099Z,0.00
2018-11-28T05:45:38.089Z,0.00
2018-11-28T05:46:38.115Z,0.00
2018-11-28T05:47:38.097Z,0.00
2018-11-28T05:48:38.132Z,0.00
2018-11-28T05:49:38.098Z,0.00
2018-11-28T05:50:38.089Z,0.00
2018-11-28T05:51:38.118Z,0.00
2018-11-28T05:52:38.175Z,0.00
2018-11-28T05:53:38.238Z,0.00
2018-11-28T05:54:38.119Z,0.00
2018-11-28T05:55:38.100Z,0.00
2018-11-28T05:56:38.117Z,0.00
2018-11-28T05:57:38.107Z,0.00
2018-11-28T05:58:38.158Z,0.00
2018-11-28T05:59:38.160Z,0.00
2018-11-28T06:00:38.145Z,0.00
2018-11-28T06:01:38.162Z,0.00
2018-11-28T06:02:38.126Z,0.00
2018-11-28T06:03:38.126Z,0.00
2018-11-28T06:04:38.139Z,0.00
2018-11-28T06:05:38.165Z,0.00
2018-11-28T06:06:38.118Z,0.00
2018-11-28T06:07:38.159Z,0.00
2018-11-28T06:08:38.136Z,0.00
2018-11-28T06:09:38.135Z,0.00
2018-11-28T06:10:38.179Z,4.00
2018-11-28T06:11:38.139Z,0.00
2018-11-28T06:12:38.141Z,0.00
2018-11-28T06:13:38.137Z,4.00
2018-11-28T06:14:38.158Z,4.00
2018-11-28T06:15:38.194Z,4.00
2018-11-28T06:16:38.151Z,4.00
2018-11-28T06:17:38.153Z,4.00
2018-11-28T06:18:38.155Z,4.00
2018-11-28T06:19:38.159Z,8.00
2018-11-28T06:20:38.162Z,8.00
2018-11-28T06:21:38.220Z,8.00
2018-11-28T06:22:38.178Z,12.00
2018-11-28T06:23:38.167Z,12.00
2018-11-28T06:24:38.177Z,12.00
2018-11-28T06:25:38.174Z,16.00
2018-11-28T06:26:38.171Z,20.00
2018-11-28T06:27:38.212Z,20.00
2018-11-28T06:28:38.178Z,24.00
2018-11-28T06:29:38.170Z,24.00
2018-11-28T06:30:38.176Z,32.00
2018-11-28T06:31:38.275Z,36.00
2018-11-28T06:32:38.185Z,40.00
2018-11-28T06:33:38.264Z,48.00
2018-11-28T06:34:38.176Z,52.00
2018-11-28T06:35:38.209Z,60.00
2018-11-28T06:36:38.182Z,68.00
2018-11-28T06:37:38.208Z,80.00
2018-11-28T06:38:38.222Z,88.00
2018-11-28T06:39:38.209Z,96.00
2018-11-28T06:40:38.194Z,108.00
2018-11-28T06:41:38.203Z,120.00
2018-11-28T06:42:38.223Z,132.00
2018-11-28T06:43:38.222Z,144.00
2018-11-28T06:44:38.222Z,156.00
2018-11-28T06:45:38.223Z,172.00
2018-11-28T06:46:38.215Z,188.00
2018-11-28T06:47:38.201Z,204.00
2018-11-28T06:48:38.209Z,220.00
2018-11-28T06:49:38.264Z,240.00
2018-11-28T06:50:38.209Z,260.00
2018-11-28T06:51:38.221Z,276.00
2018-11-28T06:52:38.223Z,296.00
2018-11-28T06:53:38.238Z,316.00
2018-11-28T06:54:38.241Z,340.00
2018-11-28T06:55:38.365Z,360.00
2018-11-28T06:56:38.234Z,384.00
2018-11-28T06:57:38.229Z,408.00
2018-11-28T06:58:38.242Z,432.00
2018-11-28T06:59:38.510Z,452.00
2018-11-28T07:00:38.253Z,480.00
2018-11-28T07:01:38.242Z,508.00
2018-11-28T07:02:38.243Z,532.00
2018-11-28T07:03:38.250Z,560.00
2018-11-28T07:04:38.277Z,584.00
2018-11-28T07:05:38.328Z,612.00
2018-11-28T07:06:38.256Z,636.00
2018-11-28T07:07:38.252Z,664.00
2018-11-28T07:08:38.244Z,692.00
2018-11-28T07:09:38.245Z,720.00
2018-11-28T07:10:38.265Z,748.00
2018-11-28T07:11:38.290Z,776.00
2018-11-28T07:12:38.267Z,800.00
2018-11-28T07:13:38.274Z,828.00
2018-11-28T07:14:38.268Z,852.00
2018-11-28T07:15:38.298Z,880.00
2018-11-28T07:16:38.259Z,908.00
2018-11-28T07:17:38.282Z,936.00
2018-11-28T07:18:38.317Z,960.00
2018-11-28T07:19:38.265Z,988.00
2018-11-28T07:20:38.292Z,1012.00
2018-11-28T07:21:38.330Z,1036.00
2018-11-28T07:22:38.285Z,1060.00
2018-11-28T07:23:38.290Z,1088.00
2018-11-28T07:24:38.295Z,1112.00
2018-11-28T07:25:38.309Z,1136.00
2018-11-28T07:26:38.274Z,1156.00
2018-11-28T07:27:38.310Z,1184.00
2018-11-28T07:28:38.296Z,1208.00
2018-11-28T07:29:38.309Z,1232.00
2018-11-28T07:30:38.307Z,1260.00
2018-11-28T07:31:38.342Z,1272.00
2018-11-28T07:32:38.308Z,1300.00
2018-11-28T07:33:38.319Z,1320.00
2018-11-28T07:34:38.319Z,1344.00
2018-11-28T07:35:38.314Z,1360.00
2018-11-28T07:36:38.342Z,1388.00
2018-11-28T07:37:38.386Z,1404.00
2018-11-28T07:38:38.305Z,1424.00
2018-11-28T07:39:38.374Z,1440.00
2018-11-28T07:40:38.405Z,1460.00
2018-11-28T07:41:38.344Z,1480.00
2018-11-28T07:42:38.340Z,1496.00
2018-11-28T07:43:38.308Z,1516.00
2018-11-28T07:44:38.326Z,1536.00
2018-11-28T07:45:38.464Z,1556.00
2018-11-28T07:46:38.329Z,1572.00
2018-11-28T07:47:38.333Z,1592.00
2018-11-28T07:48:38.356Z,1608.00
2018-11-28T07:49:38.405Z,1624.00
2018-11-28T07:50:38.324Z,1640.00
2018-11-28T07:51:38.344Z,1656.00
2018-11-28T07:52:38.368Z,1672.00
2018-11-28T07:53:38.379Z,1684.00
2018-11-28T07:54:38.344Z,1704.00
2018-11-28T07:55:38.381Z,1716.00
2018-11-28T07:56:38.356Z,1736.00
2018-11-28T07:57:38.372Z,1748.00
2018-11-28T07:58:38.354Z,1760.00
2018-11-28T07:59:38.363Z,1780.00
2018-11-28T08:00:38.375Z,1796.00
2018-11-28T08:01:38.399Z,1808.00
2018-11-28T08:02:38.369Z,1816.00
2018-11-28T08:03:38.364Z,1836.00
2018-11-28T08:04:38.448Z,1844.00
2018-11-28T08:05:38.370Z,1860.00
2018-11-28T08:06:38.378Z,1872.00
2018-11-28T08:07:38.358Z,1884.00
2018-11-28T08:08:38.372Z,1896.00
2018-11-28T08:09:38.420Z,1908.00
2018-11-28T08:10:38.560Z,1920.00
2018-11-28T08:11:38.405Z,1932.00
2018-11-28T08:12:38.390Z,1944.00
2018-11-28T08:13:38.380Z,1952.00
2018-11-28T08:14:38.376Z,1968.00
2018-11-28T08:15:38.389Z,1976.00
2018-11-28T08:16:38.428Z,1984.00
2018-11-28T08:17:38.406Z,2000.00
2018-11-28T08:18:38.402Z,2008.00
2018-11-28T08:19:38.387Z,2016.00
2018-11-28T08:20:38.442Z,2028.00
2018-11-28T08:21:38.397Z,2040.00
2018-11-28T08:22:38.412Z,2048.00
2018-11-28T08:23:38.413Z,2052.00
2018-11-28T08:24:38.498Z,2064.00
2018-11-28T08:25:38.397Z,2072.00
2018-11-28T08:26:38.425Z,2072.00
2018-11-28T08:27:38.530Z,2088.00
2018-11-28T08:28:38.408Z,2092.00
2018-11-28T08:29:38.420Z,2096.00
2018-11-28T08:30:38.442Z,2108.00
2018-11-28T08:31:38.436Z,2116.00
2018-11-28T08:32:38.414Z,2124.00
2018-11-28T08:33:38.468Z,2132.00
2018-11-28T08:34:38.426Z,2140.00
2018-11-28T08:35:38.441Z,2152.00
2018-11-28T08:36:38.423Z,2164.00
2018-11-28T08:37:38.448Z,2156.00
2018-11-28T08:38:38.433Z,2176.00
2018-11-28T08:39:38.492Z,2168.00
2018-11-28T08:40:38.438Z,2176.00
2018-11-28T08:41:38.491Z,2196.00
2018-11-28T08:42:38.457Z,2196.00
2018-11-28T08:43:38.456Z,2208.00
2018-11-28T08:44:38.462Z,2216.00
2018-11-28T08:45:38.471Z,2208.00
2018-11-28T08:46:38.460Z,2212.00
2018-11-28T08:47:38.463Z,2212.00
2018-11-28T08:48:38.464Z,2220.00
2018-11-28T08:49:38.481Z,2228.00
2018-11-28T08:50:38.566Z,2236.00
2018-11-28T08:51:38.490Z,2236.00
2018-11-28T08:52:38.462Z,2244.00
2018-11-28T08:53:38.536Z,2252.00
2018-11-28T08:54:38.469Z,2252.00
2018-11-28T08:55:38.478Z,2252.00
2018-11-28T08:56:38.551Z,2256.00
2018-11-28T08:57:38.482Z,2260.00
2018-11-28T08:58:38.495Z,2264.00
2018-11-28T08:59:38.487Z,2272.00
2018-11-28T09:00:38.475Z,2268.00
2018-11-28T09:01:38.502Z,2280.00
2018-11-28T09:02:38.528Z,2284.00
2018-11-28T09:03:38.492Z,2288.00
2018-11-28T09:04:38.499Z,2284.00
2018-11-28T09:05:38.522Z,2292.00
2018-11-28T09:06:38.523Z,2296.00
2018-11-28T09:07:38.788Z,2300.00
2018-11-28T09:08:38.497Z,2304.00
2018-11-28T09:09:38.518Z,2312.00
2018-11-28T09:10:38.500Z,2312.00
2018-11-28T09:11:38.504Z,2312.00
2018-11-28T09:12:38.538Z,2312.00
2018-11-28T09:13:38.572Z,2316.00
2018-11-28T09:14:38.526Z,2324.00
2018-11-28T09:15:38.526Z,2328.00
2018-11-28T09:16:38.534Z,2324.00
2018-11-28T09:17:38.690Z,2336.00
2018-11-28T09:18:38.598Z,2332.00
2018-11-28T09:19:38.565Z,2336.00
2018-11-28T09:20:38.528Z,2340.00
2018-11-28T09:21:38.548Z,2340.00
2018-11-28T09:22:38.543Z,2348.00
2018-11-28T09:23:38.780Z,2344.00
2018-11-28T09:24:38.589Z,2352.00
2018-11-28T09:25:38.534Z,2356.00
2018-11-28T09:26:38.571Z,2360.00
2018-11-28T09:27:38.564Z,2372.00
2018-11-28T09:28:38.559Z,2380.00
2018-11-28T09:29:38.568Z,2380.00
2018-11-28T09:30:38.618Z,2388.00
2018-11-28T09:31:38.561Z,2388.00
2018-11-28T09:32:38.567Z,2400.00
2018-11-28T09:33:38.620Z,2396.00
2018-11-28T09:34:38.577Z,2404.00
2018-11-28T09:35:38.586Z,2424.00
2018-11-28T09:36:38.590Z,2400.00
2018-11-28T09:37:38.567Z,2416.00
2018-11-28T09:38:38.577Z,2440.00
2018-11-28T09:39:38.586Z,2440.00
2018-11-28T09:40:38.631Z,2448.00
2018-11-28T09:41:38.631Z,2540.00
2018-11-28T09:42:38.593Z,2544.00
2018-11-28T09:43:38.594Z,2428.00
2018-11-28T09:44:38.596Z,2480.00
2018-11-28T09:45:38.624Z,2456.00
2018-11-28T09:46:38.624Z,2496.00
2018-11-28T09:47:38.646Z,2472.00
2018-11-28T09:48:38.614Z,2480.00
2018-11-28T09:49:38.620Z,2532.00
2018-11-28T09:50:38.605Z,2476.00
2018-11-28T09:51:38.612Z,2484.00
2018-11-28T09:52:38.681Z,2508.00
2018-11-28T09:53:38.607Z,2500.00
2018-11-28T09:54:38.643Z,2480.00
2018-11-28T09:55:38.626Z,2480.00
2018-11-28T09:56:38.634Z,2456.00
2018-11-28T09:57:38.636Z,2472.00
2018-11-28T09:58:38.669Z,2484.00
2018-11-28T09:59:38.634Z,2504.00
2018-11-28T10:00:38.677Z,2492.00
2018-11-28T10:01:38.688Z,2540.00
2018-11-28T10:02:38.668Z,2472.00
2018-11-28T10:03:38.661Z,2472.00
2018-11-28T10:04:38.661Z,2484.00
2018-11-28T10:05:38.673Z,2496.00
2018-11-28T10:06:38.667Z,2468.00
2018-11-28T10:07:38.722Z,2476.00
2018-11-28T10:08:38.714Z,2484.00
2018-11-28T10:09:38.684Z,2476.00
2018-11-28T10:10:38.665Z,2492.00
2018-11-28T10:11:38.662Z,2472.00
2018-11-28T10:12:38.668Z,2468.00
2018-11-28T10:13:38.723Z,2472.00
2018-11-28T10:14:38.684Z,2468.00
2018-11-28T10:15:38.701Z,2464.00
2018-11-28T10:16:38.761Z,2468.00
2018-11-28T10:17:38.701Z,2464.00
2018-11-28T10:18:38.696Z,2456.00
2018-11-28T10:19:38.737Z,2460.00
2018-11-28T10:20:38.682Z,2456.00
2018-11-28T10:21:38.701Z,2456.00
2018-11-28T10:22:38.726Z,2452.00
2018-11-28T10:23:38.943Z,2452.00
2018-11-28T10:24:38.751Z,2440.00
2018-11-28T10:25:38.984Z,2448.00
2018-11-28T10:26:38.729Z,2448.00
2018-11-28T10:27:38.728Z,2436.00
2018-11-28T10:28:38.723Z,2436.00
2018-11-28T10:29:38.720Z,2448.00
2018-11-28T10:30:38.746Z,2448.00
2018-11-28T10:31:38.722Z,2444.00
2018-11-28T10:32:38.738Z,2440.00
2018-11-28T10:33:38.745Z,2456.00
2018-11-28T10:34:38.741Z,2460.00
2018-11-28T10:35:38.769Z,2448.00
2018-11-28T10:36:38.779Z,2444.00
2018-11-28T10:37:38.735Z,2444.00
2018-11-28T10:38:38.743Z,2448.00
2018-11-28T10:39:38.743Z,2452.00
2018-11-28T10:40:38.781Z,2444.00
2018-11-28T10:41:38.764Z,2436.00
2018-11-28T10:42:38.801Z,2444.00
2018-11-28T10:43:38.785Z,2452.00
2018-11-28T10:44:38.774Z,2456.00
2018-11-28T10:45:38.801Z,2464.00
2018-11-28T10:46:38.812Z,2456.00
2018-11-28T10:47:38.791Z,2440.00
2018-11-28T10:48:38.775Z,2452.00
2018-11-28T10:49:38.797Z,2456.00
2018-11-28T10:50:38.825Z,2460.00
2018-11-28T10:51:38.773Z,2460.00
2018-11-28T10:52:38.825Z,2456.00
2018-11-28T10:53:38.795Z,2448.00
2018-11-28T10:54:38.804Z,2448.00
2018-11-28T10:55:38.802Z,2452.00
2018-11-28T10:56:38.812Z,2448.00
2018-11-28T10:57:38.823Z,2444.00
2018-11-28T10:58:38.825Z,2444.00
2018-11-28T10:59:38.818Z,2444.00
2018-11-28T11:00:38.808Z,2448.00
2018-11-28T11:01:38.880Z,2448.00
2018-11-28T11:02:38.874Z,2444.00
2018-11-28T11:03:38.851Z,2440.00
2018-11-28T11:04:38.858Z,2456.00
2018-11-28T11:05:38.822Z,2456.00
2018-11-28T11:06:39.740Z,2460.00
2018-11-28T11:07:38.847Z,2456.00
2018-11-28T11:08:38.858Z,2448.00
2018-11-28T11:09:38.838Z,2452.00
2018-11-28T11:10:38.840Z,2452.00
2018-11-28T11:11:38.864Z,2460.00
2018-11-28T11:12:38.849Z,2460.00
2018-11-28T11:13:38.867Z,2456.00
2018-11-28T11:14:38.846Z,2456.00
2018-11-28T11:15:38.905Z,2460.00
2018-11-28T11:16:38.858Z,2456.00
2018-11-28T11:17:38.861Z,2444.00
2018-11-28T11:18:38.915Z,2452.00
2018-11-28T11:19:38.868Z,2456.00
2018-11-28T11:20:38.874Z,2452.00
2018-11-28T11:21:38.861Z,2448.00
2018-11-28T11:22:38.865Z,2448.00
2018-11-28T11:23:38.863Z,2440.00
2018-11-28T11:24:38.949Z,2440.00
2018-11-28T11:25:38.909Z,2448.00
2018-11-28T11:26:38.910Z,2456.00
2018-11-28T11:27:38.929Z,2456.00
2018-11-28T11:28:38.884Z,2444.00
2018-11-28T11:29:38.982Z,2440.00
2018-11-28T11:30:38.914Z,2428.00
2018-11-28T11:31:38.924Z,2432.00
2018-11-28T11:32:38.917Z,2432.00
2018-11-28T11:33:38.929Z,2428.00
2018-11-28T11:34:38.932Z,2428.00
2018-11-28T11:35:38.932Z,2420.00
2018-11-28T11:36:38.918Z,2416.00
2018-11-28T11:37:38.935Z,2416.00
2018-11-28T11:38:38.925Z,2412.00
2018-11-28T11:39:38.936Z,2404.00
2018-11-28T11:40:39.034Z,2404.00
2018-11-28T11:41:38.934Z,2408.00
2018-11-28T11:42:38.949Z,2412.00
2018-11-28T11:43:38.925Z,2412.00
2018-11-28T11:44:38.944Z,2404.00
2018-11-28T11:45:39.649Z,2400.00
2018-11-28T11:46:38.966Z,2400.00
2018-11-28T11:47:38.957Z,2388.00
2018-11-28T11:48:38.947Z,2380.00
2018-11-28T11:49:38.987Z,2372.00
2018-11-28T11:50:38.973Z,2372.00
2018-11-28T11:51:39.008Z,2368.00
2018-11-28T11:52:38.958Z,2368.00
2018-11-28T11:53:38.974Z,2372.00
2018-11-28T11:54:38.966Z,2360.00
2018-11-28T11:55:39.018Z,2360.00
2018-11-28T11:56:38.967Z,2368.00
2018-11-28T11:57:39.025Z,2360.00
2018-11-28T11:58:38.994Z,2356.00
2018-11-28T11:59:38.989Z,2356.00
2018-11-28T12:00:38.998Z,2352.00
2018-11-28T12:01:38.986Z,2348.00
2018-11-28T12:02:39.042Z,2348.00
2018-11-28T12:03:39.050Z,2352.00
2018-11-28T12:04:39.003Z,2344.00
2018-11-28T12:05:39.018Z,2332.00
2018-11-28T12:06:39.099Z,2324.00
2018-11-28T12:07:39.019Z,2324.00
2018-11-28T12:08:39.103Z,2324.00
2018-11-28T12:09:39.019Z,2328.00
2018-11-28T12:10:39.017Z,2328.00
2018-11-28T12:11:39.067Z,2324.00
2018-11-28T12:12:39.051Z,2316.00
2018-11-28T12:13:39.103Z,2316.00
2018-11-28T12:14:39.040Z,2312.00
2018-11-28T12:15:39.038Z,2308.00
2018-11-28T12:16:39.095Z,2308.00
2018-11-28T12:17:39.049Z,2296.00
2018-11-28T12:18:39.072Z,2292.00
2018-11-28T12:19:39.086Z,2296.00
2018-11-28T12:20:39.060Z,2296.00
2018-11-28T12:21:39.080Z,2288.00
2018-11-28T12:22:39.064Z,2284.00
2018-11-28T12:23:39.092Z,2280.00
2018-11-28T12:24:39.142Z,2280.00
2018-11-28T12:25:39.094Z,2276.00
2018-11-28T12:26:39.102Z,2272.00
2018-11-28T12:27:39.076Z,2268.00
2018-11-28T12:28:39.111Z,2260.00
2018-11-28T12:29:39.083Z,2256.00
2018-11-28T12:30:39.125Z,2256.00
2018-11-28T12:31:39.078Z,2252.00
2018-11-28T12:32:39.091Z,2248.00
2018-11-28T12:33:39.100Z,2244.00
2018-11-28T12:34:39.118Z,2236.00
2018-11-28T12:35:39.177Z,2232.00
2018-11-28T12:36:39.128Z,2220.00
2018-11-28T12:37:39.102Z,2216.00
2018-11-28T12:38:39.126Z,2216.00
2018-11-28T12:39:39.169Z,2212.00
2018-11-28T12:40:39.124Z,2208.00
2018-11-28T12:41:39.157Z,2200.00
2018-11-28T12:42:39.141Z,2196.00